Phoenix, AZ (85017)

9:15 PM MST on September 21, 2014 (GMT -0700)
Phoenix S of Christown | Change Station
CLOSE
Current Station
Personal Weather Station
Location: Phoenix, AZ
Elevation: 1152 ft
Nearby Weather Stations

Elev 1152 ft 33.51 °N, 112.10 °W | Updated 3 minutes ago

Clear
Clear
80.8 °F
Feels Like 81 °F
N
0.0
Wind Variable Wind from NNW
Gusts 0.0 mph

Today
High -- | Low -- °F
--% Chance of Precip.
Yesterday
High -- | Low -- °F
Precip. -- in
6:15 AM 6:26 PM
Waning Crescent, 4% visible
Pressure 29.82 in
Visibility 10.0 miles
Clouds Clear
Heat Index 81 °F
Dew Point 59 °F
Humidity 48%
Rainfall 0.00 in
Snow Depth 0 in , 0 in , 0 in
UV 0 out of 12
Pollen 6.40 out of 12
Ozone Good
PM2.5 Good
Flu Activity Not available.
METAR KPHX 220351Z 36004KT 10SM CLR 34/11 A2988 RMK AO2 SLP096 T03440111

More Conditions Fewer Conditions

Pressure 29.82 in
Visibility 10.0 miles
Clouds Clear
Heat Index 81 °F
Dew Point 59 °F
Humidity 48%
Rainfall 0.00 in
Snow Depth 0 in , 0 in , 0 in
UV 0 out of 12
Pollen 6.40 out of 12
Ozone Good
PM2.5 Good
Flu Activity Not available.
METAR KPHX 220351Z 36004KT 10SM CLR 34/11 A2988 RMK AO2 SLP096 T03440111

More Conditions Fewer Conditions

10-Day Weather Forecast

Almanac

Astronomy

Sep. 21, 2014 Rise Set
Actual Time 6:15 AM MST 6:26 PM MST
Civil Twilight 5:51 AM MST 6:51 PM MST
Nautical Twilight 5:22 AM MST 7:20 PM MST
Astronomical Twilight 4:52 AM MST 7:49 PM MST
Moon 3:58 AM MST (9/21) 5:00 PM MST (9/21)
Length of Visible Light 13h 00m
Length of Day
12h 10m
Tomorrow will be 2m 4s shorter.
Waning Crescent, 4% of the Moon is Illuminated
Sep 22
Waning Crescent
Sep 24
New
Oct 1
First Quarter
Oct 8
Full
Oct 15
Last Quarter

Today's Extremes

State Highs State Lows

Community

WunderPhotos

Upload Photos

1,755,383 photos uploaded!

Nearby

Air Quality

  Air Quality AQ Index Pollutant
Yesterday Good
PM2.5
Yesterday Good
OZONE
Current Good
OZONE
Current Good
PM2.5
Sunday Good
PM2.5
Sunday Moderate
OZONE
Sunday Good
CO
Monday Moderate
OZONE
Monday Good
PM10
Monday Good
CO
Tuesday Moderate
OZONE
Tuesday Good
PM10
Tuesday Good
CO

Snow Depth

Station Depth Elevation
Promontory 0 in 7930 ft
Maverick Fork 0 in 9200 ft
Beaver Head 0 in 7990 ft
Workman Creek 1 in 6900 ft
Wildcat 0 in 7850 ft

Earthquake Activity

City Distance Mag. Time & Date
No recent earthquake activity has been reported nearby.
Minimum magnitude displayed is 2.5.

Coastal Water Temperatures

Place Temperature
No Stations Reporting

Nearby Weather Stations